Аэропорт: Бухта Провидения. Провидения

ICAO: UHMD

METAR:
2018/05/20 23:00
UHMD 202300Z 00000MPS CAVOK 03/M04 Q1007 RMK QFE754/1006
METAR:
Информация по данной станции не доступна